sensor_id;sensor_type;location;lat;lon;timestamp;pressure;altitude;pressure_sealevel;temperature;humidity
60170;BME280;46042;49.444;6.862;2023-11-18T00:00:38;99533.53;;;4.38;100.00
60170;BME280;46042;49.444;6.862;2023-11-18T00:03:05;99528.28;;;4.40;100.00
60170;BME280;46042;49.444;6.862;2023-11-18T00:05:32;99524.09;;;4.33;100.00
60170;BME280;46042;49.444;6.862;2023-11-18T00:07:58;99535.44;;;4.32;100.00
60170;BME280;46042;49.444;6.862;2023-11-18T00:10:25;99525.06;;;4.30;100.00
60170;BME280;46042;49.444;6.862;2023-11-18T00:12:52;99525.75;;;4.37;100.00
60170;BME280;46042;49.444;6.862;2023-11-18T00:15:19;99510.03;;;4.38;100.00
60170;BME280;46042;49.444;6.862;2023-11-18T00:17:46;99514.22;;;4.46;100.00
60170;BME280;46042;49.444;6.862;2023-11-18T00:20:13;99506.31;;;4.49;100.00
60170;BME280;46042;49.444;6.862;2023-11-18T00:22:40;99505.34;;;4.51;100.00
60170;BME280;46042;49.444;6.862;2023-11-18T00:25:08;99499.19;;;4.54;100.00
60170;BME280;46042;49.444;6.862;2023-11-18T00:27:35;99497.53;;;4.51;100.00
60170;BME280;46042;49.444;6.862;2023-11-18T00:30:05;99497.38;;;4.58;100.00
60170;BME280;46042;49.444;6.862;2023-11-18T00:32:34;99494.69;;;4.59;100.00
60170;BME280;46042;49.444;6.862;2023-11-18T00:35:02;99494.41;;;4.70;100.00
60170;BME280;46042;49.444;6.862;2023-11-18T00:37:31;99496.38;;;4.62;100.00
60170;BME280;46042;49.444;6.862;2023-11-18T00:39:58;99494.66;;;4.61;100.00
60170;BME280;46042;49.444;6.862;2023-11-18T00:42:25;99496.56;;;4.55;100.00
60170;BME280;46042;49.444;6.862;2023-11-18T00:44:52;99494.63;;;4.62;100.00
60170;BME280;46042;49.444;6.862;2023-11-18T00:47:21;99496.19;;;4.68;100.00
60170;BME280;46042;49.444;6.862;2023-11-18T00:49:49;99498.69;;;4.73;100.00
60170;BME280;46042;49.444;6.862;2023-11-18T00:52:18;99504.84;;;4.70;100.00
60170;BME280;46042;49.444;6.862;2023-11-18T00:54:45;99500.47;;;4.72;100.00
60170;BME280;46042;49.444;6.862;2023-11-18T00:57:12;99498.69;;;4.73;100.00
60170;BME280;46042;49.444;6.862;2023-11-18T00:59:42;99497.69;;;4.77;100.00
60170;BME280;46042;49.444;6.862;2023-11-18T01:02:09;99499.41;;;4.78;100.00
60170;BME280;46042;49.444;6.862;2023-11-18T01:04:36;99489.81;;;4.78;100.00
60170;BME280;46042;49.444;6.862;2023-11-18T01:07:03;99487.25;;;4.77;100.00
60170;BME280;46042;49.444;6.862;2023-11-18T01:09:29;99492.78;;;4.66;100.00
60170;BME280;46042;49.444;6.862;2023-11-18T01:12:03;99496.88;;;4.43;100.00
60170;BME280;46042;49.444;6.862;2023-11-18T01:14:35;99495.69;;;4.55;100.00
60170;BME280;46042;49.444;6.862;2023-11-18T01:17:05;99500.34;;;4.44;100.00
60170;BME280;46042;49.444;6.862;2023-11-18T01:19:32;99500.31;;;4.45;100.00
60170;BME280;46042;49.444;6.862;2023-11-18T01:22:00;99501.31;;;4.39;100.00
60170;BME280;46042;49.444;6.862;2023-11-18T01:24:27;99501.84;;;4.52;100.00
60170;BME280;46042;49.444;6.862;2023-11-18T01:26:54;99506.66;;;4.35;100.00
60170;BME280;46042;49.444;6.862;2023-11-18T01:29:21;99514.22;;;4.46;100.00
60170;BME280;46042;49.444;6.862;2023-11-18T01:31:48;99516.28;;;4.33;100.00
60170;BME280;46042;49.444;6.862;2023-11-18T01:34:19;99509.44;;;4.29;100.00
60170;BME280;46042;49.444;6.862;2023-11-18T01:36:49;99513.81;;;4.28;100.00
60170;BME280;46042;49.444;6.862;2023-11-18T01:39:17;99502.81;;;4.48;100.00
60170;BME280;46042;49.444;6.862;2023-11-18T01:41:47;99509.53;;;4.57;100.00
60170;BME280;46042;49.444;6.862;2023-11-18T01:44:15;99503.28;;;4.64;100.00
60170;BME280;46042;49.444;6.862;2023-11-18T01:46:44;99517.94;;;4.68;100.00
60170;BME280;46042;49.444;6.862;2023-11-18T01:49:13;99521.47;;;4.67;100.00
60170;BME280;46042;49.444;6.862;2023-11-18T01:51:45;99525.06;;;4.63;100.00
60170;BME280;46042;49.444;6.862;2023-11-18T01:54:13;99524.16;;;4.64;100.00
60170;BME280;46042;49.444;6.862;2023-11-18T01:56:46;99521.53;;;4.64;100.00
60170;BME280;46042;49.444;6.862;2023-11-18T01:59:14;99520.56;;;4.68;100.00
60170;BME280;46042;49.444;6.862;2023-11-18T02:01:51;99525.78;;;4.68;100.00
60170;BME280;46042;49.444;6.862;2023-11-18T02:04:20;99517.88;;;4.70;100.00
60170;BME280;46042;49.444;6.862;2023-11-18T02:06:49;99522.97;;;4.75;100.00
60170;BME280;46042;49.444;6.862;2023-11-18T02:09:17;99517.75;;;4.75;100.00
60170;BME280;46042;49.444;6.862;2023-11-18T02:14:32;99507.19;;;4.79;100.00
60170;BME280;46042;49.444;6.862;2023-11-18T02:17:02;99509.84;;;4.78;100.00
60170;BME280;46042;49.444;6.862;2023-11-18T02:19:30;99506.50;;;4.73;100.00
60170;BME280;46042;49.444;6.862;2023-11-18T02:21:58;99492.03;;;4.62;100.00
60170;BME280;46042;49.444;6.862;2023-11-18T02:24:29;99499.63;;;4.70;100.00
60170;BME280;46042;49.444;6.862;2023-11-18T02:26:57;99507.44;;;4.70;100.00
60170;BME280;46042;49.444;6.862;2023-11-18T02:29:26;99503.97;;;4.71;100.00
60170;BME280;46042;49.444;6.862;2023-11-18T02:35:10;99499.78;;;4.64;100.00
60170;BME280;46042;49.444;6.862;2023-11-18T02:37:43;99499.97;;;4.58;100.00
60170;BME280;46042;49.444;6.862;2023-11-18T02:40:16;99504.53;;;4.49;100.00
60170;BME280;46042;49.444;6.862;2023-11-18T02:42:45;99505.50;;;4.47;100.00
60170;BME280;46042;49.444;6.862;2023-11-18T02:45:13;99495.09;;;4.45;100.00
60170;BME280;46042;49.444;6.862;2023-11-18T02:47:44;99501.19;;;4.44;100.00
60170;BME280;46042;49.444;6.862;2023-11-18T02:50:11;99502.78;;;4.50;100.00
60170;BME280;46042;49.444;6.862;2023-11-18T02:52:40;99509.66;;;4.52;100.00
60170;BME280;46042;49.444;6.862;2023-11-18T02:55:07;99503.50;;;4.57;100.00
60170;BME280;46042;49.444;6.862;2023-11-18T02:57:35;99508.66;;;4.58;100.00
60170;BME280;46042;49.444;6.862;2023-11-18T03:00:07;99500.66;;;4.64;100.00
60170;BME280;46042;49.444;6.862;2023-11-18T03:02:43;99499.75;;;4.65;100.00
60170;BME280;46042;49.444;6.862;2023-11-18T03:05:10;99504.38;;;4.55;100.00
60170;BME280;46042;49.444;6.862;2023-11-18T03:07:39;99503.44;;;4.58;100.00
60170;BME280;46042;49.444;6.862;2023-11-18T03:10:05;99506.84;;;4.60;100.00
60170;BME280;46042;49.444;6.862;2023-11-18T03:12:38;99507.19;;;4.79;100.00
60170;BME280;46042;49.444;6.862;2023-11-18T03:15:06;99514.03;;;4.83;100.00
60170;BME280;46042;49.444;6.862;2023-11-18T03:17:35;99511.31;;;4.88;100.00
60170;BME280;46042;49.444;6.862;2023-11-18T03:20:02;99510.00;;;4.73;100.00
60170;BME280;46042;49.444;6.862;2023-11-18T03:22:31;99505.59;;;4.75;100.00
60170;BME280;46042;49.444;6.862;2023-11-18T03:24:58;99507.22;;;4.78;100.00
60170;BME280;46042;49.444;6.862;2023-11-18T03:27:25;99509.81;;;4.79;100.00
60170;BME280;46042;49.444;6.862;2023-11-18T03:29:52;99509.94;;;4.75;100.00
60170;BME280;46042;49.444;6.862;2023-11-18T03:32:19;99511.81;;;4.69;100.00
60170;BME280;46042;49.444;6.862;2023-11-18T03:34:45;99512.97;;;4.59;100.00
60170;BME280;46042;49.444;6.862;2023-11-18T03:37:12;99502.72;;;4.53;100.00
60170;BME280;46042;49.444;6.862;2023-11-18T03:39:39;99516.47;;;4.58;100.00
60170;BME280;46042;49.444;6.862;2023-11-18T03:42:06;99511.38;;;4.53;100.00
60170;BME280;46042;49.444;6.862;2023-11-18T03:44:32;99503.53;;;4.53;100.00
60170;BME280;46042;49.444;6.862;2023-11-18T03:46:59;99500.91;;;4.55;100.00
60170;BME280;46042;49.444;6.862;2023-11-18T03:49:26;99500.88;;;4.57;100.00
60170;BME280;46042;49.444;6.862;2023-11-18T03:51:53;99502.50;;;4.61;100.00
60170;BME280;46042;49.444;6.862;2023-11-18T03:54:21;99504.53;;;4.49;100.00
60170;BME280;46042;49.444;6.862;2023-11-18T03:56:47;99499.59;;;4.38;100.00
60170;BME280;46042;49.444;6.862;2023-11-18T03:59:14;99498.81;;;4.35;100.00
60170;BME280;46042;49.444;6.862;2023-11-18T04:01:41;99478.56;;;4.45;100.00
60170;BME280;46042;49.444;6.862;2023-11-18T04:04:08;99474.41;;;4.39;100.00
60170;BME280;46042;49.444;6.862;2023-11-18T04:06:34;99481.16;;;4.45;100.00
60170;BME280;46042;49.444;6.862;2023-11-18T04:09:01;99488.06;;;4.47;100.00
60170;BME280;46042;49.444;6.862;2023-11-18T04:11:29;99483.75;;;4.46;100.00
60170;BME280;46042;49.444;6.862;2023-11-18T04:13:56;99484.53;;;4.50;100.00
60170;BME280;46042;49.444;6.862;2023-11-18T04:16:22;99477.50;;;4.52;100.00
60170;BME280;46042;49.444;6.862;2023-11-18T04:18:49;99485.47;;;4.47;100.00
60170;BME280;46042;49.444;6.862;2023-11-18T04:21:16;99482.00;;;4.47;100.00
60170;BME280;46042;49.444;6.862;2023-11-18T04:23:43;99478.41;;;4.51;100.00
60170;BME280;46042;49.444;6.862;2023-11-18T04:26:10;99478.53;;;4.46;100.00
60170;BME280;46042;49.444;6.862;2023-11-18T04:28:37;99475.75;;;4.52;100.00
60170;BME280;46042;49.444;6.862;2023-11-18T04:31:04;99475.00;;;4.49;100.00
60170;BME280;46042;49.444;6.862;2023-11-18T04:33:32;99487.97;;;4.50;100.00
60170;BME280;46042;49.444;6.862;2023-11-18T04:35:59;99495.97;;;4.46;100.00
60170;BME280;46042;49.444;6.862;2023-11-18T04:38:26;99494.22;;;4.45;100.00
60170;BME280;46042;49.444;6.862;2023-11-18T04:40:53;99486.34;;;4.46;100.00
60170;BME280;46042;49.444;6.862;2023-11-18T04:43:21;99493.88;;;4.57;100.00
60170;BME280;46042;49.444;6.862;2023-11-18T04:46:05;99487.84;;;4.55;100.00
60170;BME280;46042;49.444;6.862;2023-11-18T04:48:32;99480.16;;;4.50;100.00
60170;BME280;46042;49.444;6.862;2023-11-18T04:51:00;99492.28;;;4.53;100.00
60170;BME280;46042;49.444;6.862;2023-11-18T04:53:27;99485.16;;;4.58;100.00
60170;BME280;46042;49.444;6.862;2023-11-18T04:55:53;99487.84;;;4.55;100.00
60170;BME280;46042;49.444;6.862;2023-11-18T04:58:21;99477.34;;;4.58;100.00
60170;BME280;46042;49.444;6.862;2023-11-18T05:00:47;99485.53;;;4.44;100.00
60170;BME280;46042;49.444;6.862;2023-11-18T05:03:18;99483.94;;;4.40;100.00
60170;BME280;46042;49.444;6.862;2023-11-18T05:05:45;99478.72;;;4.40;100.00
60170;BME280;46042;49.444;6.862;2023-11-18T05:08:19;99466.50;;;4.40;100.00
60170;BME280;46042;49.444;6.862;2023-11-18T05:10:50;99472.69;;;4.38;100.00
60170;BME280;46042;49.444;6.862;2023-11-18T05:13:17;99469.81;;;4.47;100.00
60170;BME280;46042;49.444;6.862;2023-11-18T05:15:46;99470.63;;;4.49;100.00
60170;BME280;46042;49.444;6.862;2023-11-18T05:18:14;99452.63;;;4.40;100.00
60170;BME280;46042;49.444;6.862;2023-11-18T05:20:42;99461.25;;;4.42;100.00
60170;BME280;46042;49.444;6.862;2023-11-18T05:23:09;99455.09;;;4.45;100.00
60170;BME280;46042;49.444;6.862;2023-11-18T05:25:39;99453.44;;;4.42;100.00
60170;BME280;46042;49.444;6.862;2023-11-18T05:28:06;99458.75;;;4.39;100.00
60170;BME280;46042;49.444;6.862;2023-11-18T05:30:35;99462.41;;;4.32;100.00
60170;BME280;46042;49.444;6.862;2023-11-18T05:33:03;99444.88;;;4.37;100.00
60170;BME280;46042;49.444;6.862;2023-11-18T05:35:33;99450.22;;;4.32;100.00
60170;BME280;46042;49.444;6.862;2023-11-18T05:38:01;99456.28;;;4.33;100.00
60170;BME280;46042;49.444;6.862;2023-11-18T05:40:32;99456.16;;;4.37;100.00
60170;BME280;46042;49.444;6.862;2023-11-18T05:43:02;99448.31;;;4.39;100.00
60170;BME280;46042;49.444;6.862;2023-11-18T05:45:32;99455.59;;;4.26;100.00
60170;BME280;46042;49.444;6.862;2023-11-18T05:48:19;99444.34;;;4.24;100.00
60170;BME280;46042;49.444;6.862;2023-11-18T05:50:45;99436.56;;;4.22;100.00
60170;BME280;46042;49.444;6.862;2023-11-18T05:53:14;99436.50;;;4.24;100.00
60170;BME280;46042;49.444;6.862;2023-11-18T05:55:41;99435.50;;;4.30;100.00
60170;BME280;46042;49.444;6.862;2023-11-18T05:58:08;99431.09;;;4.32;100.00
60170;BME280;46042;49.444;6.862;2023-11-18T06:00:35;99430.78;;;4.43;100.00
60170;BME280;46042;49.444;6.862;2023-11-18T06:03:07;99429.09;;;4.41;100.00
60170;BME280;46042;49.444;6.862;2023-11-18T06:05:34;99422.28;;;4.36;100.00
60170;BME280;46042;49.444;6.862;2023-11-18T06:08:01;99419.66;;;4.36;100.00
60170;BME280;46042;49.444;6.862;2023-11-18T06:10:28;99421.44;;;4.35;100.00
60170;BME280;46042;49.444;6.862;2023-11-18T06:12:57;99426.53;;;4.40;100.00
60170;BME280;46042;49.444;6.862;2023-11-18T06:15:24;99426.44;;;4.43;100.00
60170;BME280;46042;49.444;6.862;2023-11-18T06:17:51;99420.31;;;4.44;100.00
60170;BME280;46042;49.444;6.862;2023-11-18T06:20:18;99422.28;;;4.36;100.00
60170;BME280;46042;49.444;6.862;2023-11-18T06:22:46;99418.84;;;4.34;100.00
60170;BME280;46042;49.444;6.862;2023-11-18T06:25:13;99422.25;;;4.37;100.00
60170;BME280;46042;49.444;6.862;2023-11-18T06:27:40;99430.66;;;4.47;100.00
60170;BME280;46042;49.444;6.862;2023-11-18T06:30:07;99427.97;;;4.50;100.00
60170;BME280;46042;49.444;6.862;2023-11-18T06:32:34;99414.97;;;4.49;100.00
60170;BME280;46042;49.444;6.862;2023-11-18T06:35:00;99419.31;;;4.50;100.00
60170;BME280;46042;49.444;6.862;2023-11-18T06:37:32;99424.53;;;4.50;100.00
60170;BME280;46042;49.444;6.862;2023-11-18T06:39:59;99418.81;;;4.37;100.00
60170;BME280;46042;49.444;6.862;2023-11-18T06:42:25;99416.94;;;4.40;100.00
60170;BME280;46042;49.444;6.862;2023-11-18T06:44:52;99421.81;;;4.53;100.00
60170;BME280;46042;49.444;6.862;2023-11-18T06:47:19;99421.13;;;4.46;100.00
60170;BME280;46042;49.444;6.862;2023-11-18T06:49:46;99429.84;;;4.47;100.00
60170;BME280;46042;49.444;6.862;2023-11-18T06:52:14;99420.19;;;4.49;100.00
60170;BME280;46042;49.444;6.862;2023-11-18T06:54:41;99422.84;;;4.47;100.00
60170;BME280;46042;49.444;6.862;2023-11-18T06:57:08;99433.28;;;4.47;100.00
60170;BME280;46042;49.444;6.862;2023-11-18T06:59:34;99427.81;;;4.57;100.00
60170;BME280;46042;49.444;6.862;2023-11-18T07:02:01;99416.69;;;4.50;100.00
60170;BME280;46042;49.444;6.862;2023-11-18T07:04:30;99416.72;;;4.48;100.00
60170;BME280;46042;49.444;6.862;2023-11-18T07:06:57;99401.53;;;4.63;100.00
60170;BME280;46042;49.444;6.862;2023-11-18T07:09:24;99389.03;;;4.43;100.00
60170;BME280;46042;49.444;6.862;2023-11-18T07:11:52;99405.34;;;4.51;100.00
60170;BME280;46042;49.444;6.862;2023-11-18T07:14:19;99407.88;;;4.54;100.00
60170;BME280;46042;49.444;6.862;2023-11-18T07:16:46;99407.09;;;4.50;100.00
60170;BME280;46042;49.444;6.862;2023-11-18T07:19:13;99415.50;;;4.60;100.00
60170;BME280;46042;49.444;6.862;2023-11-18T07:21:49;99424.09;;;4.65;100.00
60170;BME280;46042;49.444;6.862;2023-11-18T07:24:16;99437.63;;;4.78;100.00
60170;BME280;46042;49.444;6.862;2023-11-18T07:26:44;99449.66;;;4.84;100.00
60170;BME280;46042;49.444;6.862;2023-11-18T07:29:11;99438.34;;;4.83;100.00
60170;BME280;46042;49.444;6.862;2023-11-18T07:31:38;99437.44;;;4.84;100.00
60170;BME280;46042;49.444;6.862;2023-11-18T07:34:05;99432.97;;;4.88;100.00
60170;BME280;46042;49.444;6.862;2023-11-18T07:36:34;99421.84;;;4.83;100.00
60170;BME280;46042;49.444;6.862;2023-11-18T07:39:01;99405.41;;;4.79;100.00
60170;BME280;46042;49.444;6.862;2023-11-18T07:41:31;99398.34;;;4.83;100.00
60170;BME280;46042;49.444;6.862;2023-11-18T07:43:59;99393.28;;;4.77;100.00
60170;BME280;46042;49.444;6.862;2023-11-18T07:46:27;99396.94;;;4.71;100.00
60170;BME280;46042;49.444;6.862;2023-11-18T07:48:55;99399.25;;;4.82;100.00
60170;BME280;46042;49.444;6.862;2023-11-18T07:51:23;99401.84;;;4.82;100.00
60170;BME280;46042;49.444;6.862;2023-11-18T07:53:52;99416.72;;;4.80;100.00
60170;BME280;46042;49.444;6.862;2023-11-18T07:56:19;99418.22;;;4.87;100.00
60170;BME280;46042;49.444;6.862;2023-11-18T07:58:49;99425.19;;;4.87;100.00
60170;BME280;46042;49.444;6.862;2023-11-18T08:01:18;99434.81;;;4.84;100.00
60170;BME280;46042;49.444;6.862;2023-11-18T08:03:48;99437.31;;;4.89;100.00
60170;BME280;46042;49.444;6.862;2023-11-18T08:06:18;99438.97;;;4.92;100.00
60170;BME280;46042;49.444;6.862;2023-11-18T08:08:45;99435.38;;;4.96;100.00
60170;BME280;46042;49.444;6.862;2023-11-18T08:11:12;99419.72;;;4.94;100.00
60170;BME280;46042;49.444;6.862;2023-11-18T08:13:39;99405.59;;;5.02;100.00
60170;BME280;46042;49.444;6.862;2023-11-18T08:16:06;99414.16;;;5.07;100.00
60170;BME280;46042;49.444;6.862;2023-11-18T08:18:38;99411.44;;;5.10;100.00
60170;BME280;46042;49.444;6.862;2023-11-18T08:21:05;99413.25;;;5.08;100.00
60170;BME280;46042;49.444;6.862;2023-11-18T08:23:33;99404.25;;;5.17;100.00
60170;BME280;46042;49.444;6.862;2023-11-18T08:26:00;99400.94;;;5.11;100.00
60170;BME280;46042;49.444;6.862;2023-11-18T08:28:27;99395.59;;;5.16;100.00
60170;BME280;46042;49.444;6.862;2023-11-18T08:30:54;99397.13;;;5.22;100.00
60170;BME280;46042;49.444;6.862;2023-11-18T08:33:21;99400.09;;;5.11;100.00
60170;BME280;46042;49.444;6.862;2023-11-18T08:35:50;99390.28;;;5.18;100.00
60170;BME280;46042;49.444;6.862;2023-11-18T08:38:17;99400.59;;;5.22;100.00
60170;BME280;46042;49.444;6.862;2023-11-18T08:40:44;99404.94;;;5.23;100.00
60170;BME280;46042;49.444;6.862;2023-11-18T08:43:12;99401.28;;;5.29;100.00
60170;BME280;46042;49.444;6.862;2023-11-18T08:45:39;99396.94;;;5.28;100.00
60170;BME280;46042;49.444;6.862;2023-11-18T08:48:07;99413.88;;;5.43;100.00
60170;BME280;46042;49.444;6.862;2023-11-18T08:50:36;99408.13;;;5.60;100.00
60170;BME280;46042;49.444;6.862;2023-11-18T08:53:03;99414.84;;;5.67;100.00
60170;BME280;46042;49.444;6.862;2023-11-18T08:55:32;99408.56;;;5.73;100.00
60170;BME280;46042;49.444;6.862;2023-11-18T08:58:09;99418.91;;;5.76;100.00
60170;BME280;46042;49.444;6.862;2023-11-18T09:00:47;99427.09;;;5.65;100.00
60170;BME280;46042;49.444;6.862;2023-11-18T09:03:16;99425.00;;;5.77;100.00
60170;BME280;46042;49.444;6.862;2023-11-18T09:05:46;99426.63;;;5.79;100.00
60170;BME280;46042;49.444;6.862;2023-11-18T09:08:37;99424.63;;;5.88;100.00
60170;BME280;46042;49.444;6.862;2023-11-18T09:11:13;99423.56;;;5.93;100.00
60170;BME280;46042;49.444;6.862;2023-11-18T09:13:47;99432.38;;;5.91;100.00
60170;BME280;46042;49.444;6.862;2023-11-18T09:16:20;99422.94;;;5.87;100.00
60170;BME280;46042;49.444;6.862;2023-11-18T09:18:49;99420.19;;;5.90;100.00
60170;BME280;46042;49.444;6.862;2023-11-18T09:21:17;99423.41;;;5.98;100.00
60170;BME280;46042;49.444;6.862;2023-11-18T09:23:52;99425.84;;;6.04;100.00
60170;BME280;46042;49.444;6.862;2023-11-18T09:26:18;99431.88;;;6.06;100.00
60170;BME280;46042;49.444;6.862;2023-11-18T09:28:45;99431.19;;;6.01;100.00
60170;BME280;46042;49.444;6.862;2023-11-18T09:31:12;99434.59;;;6.03;100.00
60170;BME280;46042;49.444;6.862;2023-11-18T09:33:40;99431.84;;;6.08;100.00
60170;BME280;46042;49.444;6.862;2023-11-18T09:36:13;99438.28;;;5.96;100.00
60170;BME280;46042;49.444;6.862;2023-11-18T09:38:40;99433.44;;;5.85;100.00
60170;BME280;46042;49.444;6.862;2023-11-18T09:41:10;99434.34;;;5.84;100.00
60170;BME280;46042;49.444;6.862;2023-11-18T09:43:41;99435.09;;;5.88;100.00
60170;BME280;46042;49.444;6.862;2023-11-18T09:46:17;99436.78;;;5.89;100.00
60170;BME280;46042;49.444;6.862;2023-11-18T09:48:47;99436.00;;;5.87;100.00
60170;BME280;46042;49.444;6.862;2023-11-18T09:51:21;99433.13;;;5.94;100.00
60170;BME280;46042;49.444;6.862;2023-11-18T09:53:53;99434.97;;;5.91;100.00
60170;BME280;46042;49.444;6.862;2023-11-18T09:59:11;99433.16;;;5.93;100.00
60170;BME280;46042;49.444;6.862;2023-11-18T10:01:43;99434.53;;;6.05;100.00
60170;BME280;46042;49.444;6.862;2023-11-18T10:04:12;99423.13;;;6.07;100.00
60170;BME280;46042;49.444;6.862;2023-11-18T10:06:39;99417.66;;;6.14;100.00
60170;BME280;46042;49.444;6.862;2023-11-18T10:09:07;99424.81;;;6.08;100.00
60170;BME280;46042;49.444;6.862;2023-11-18T10:11:47;99430.81;;;6.12;100.00
60170;BME280;46042;49.444;6.862;2023-11-18T10:14:15;99430.09;;;6.07;100.00
60170;BME280;46042;49.444;6.862;2023-11-18T10:16:45;99431.25;;;5.98;100.00
60170;BME280;46042;49.444;6.862;2023-11-18T10:19:15;99427.63;;;5.77;100.00
60170;BME280;46042;49.444;6.862;2023-11-18T10:21:45;99431.97;;;5.76;100.00
60170;BME280;46042;49.444;6.862;2023-11-18T10:24:16;99410.91;;;5.81;100.00
60170;BME280;46042;49.444;6.862;2023-11-18T10:26:55;99409.13;;;5.81;100.00
60170;BME280;46042;49.444;6.862;2023-11-18T10:29:26;99407.50;;;5.79;100.00
60170;BME280;46042;49.444;6.862;2023-11-18T10:32:07;99410.75;;;5.86;100.00
60170;BME280;46042;49.444;6.862;2023-11-18T10:34:42;99395.97;;;5.84;100.00
60170;BME280;46042;49.444;6.862;2023-11-18T10:37:09;99385.25;;;5.92;100.00
60170;BME280;46042;49.444;6.862;2023-11-18T10:39:37;99374.63;;;5.97;100.00
60170;BME280;46042;49.444;6.862;2023-11-18T10:42:04;99365.25;;;5.91;100.00
60170;BME280;46042;49.444;6.862;2023-11-18T10:44:31;99363.34;;;5.95;100.00
60170;BME280;46042;49.444;6.862;2023-11-18T10:46:58;99352.59;;;6.04;100.00
60170;BME280;46042;49.444;6.862;2023-11-18T10:49:29;99355.13;;;6.07;100.00
60170;BME280;46042;49.444;6.862;2023-11-18T10:52:04;99352.38;;;6.10;100.00
60170;BME280;46042;49.444;6.862;2023-11-18T10:54:33;99342.03;;;6.07;100.00
60170;BME280;46042;49.444;6.862;2023-11-18T10:57:01;99340.44;;;6.03;100.00
60170;BME280;46042;49.444;6.862;2023-11-18T10:59:34;99349.09;;;6.05;100.00
60170;BME280;46042;49.444;6.862;2023-11-18T11:02:17;99336.75;;;6.09;100.00
60170;BME280;46042;49.444;6.862;2023-11-18T11:04:45;99324.91;;;6.22;100.00
60170;BME280;46042;49.444;6.862;2023-11-18T11:07:13;99303.97;;;6.22;100.00
60170;BME280;46042;49.444;6.862;2023-11-18T11:09:41;99311.13;;;6.19;100.00
60170;BME280;46042;49.444;6.862;2023-11-18T11:12:13;99317.25;;;6.18;100.00
60170;BME280;46042;49.444;6.862;2023-11-18T11:14:53;99313.31;;;6.06;100.00
60170;BME280;46042;49.444;6.862;2023-11-18T11:17:27;99314.00;;;6.11;100.00
60170;BME280;46042;49.444;6.862;2023-11-18T11:20:07;99310.66;;;6.07;100.00
60170;BME280;46042;49.444;6.862;2023-11-18T11:33:39;99293.19;;;6.32;100.00
60170;BME280;46042;49.444;6.862;2023-11-18T11:36:17;99287.19;;;6.28;100.00
60170;BME280;46042;49.444;6.862;2023-11-18T11:38:52;99281.13;;;6.28;100.00
60170;BME280;46042;49.444;6.862;2023-11-18T11:41:20;99281.84;;;6.31;100.00
60170;BME280;46042;49.444;6.862;2023-11-18T11:43:53;99268.06;;;6.28;100.00
60170;BME280;46042;49.444;6.862;2023-11-18T11:46:26;99280.94;;;6.32;100.00
60170;BME280;46042;49.444;6.862;2023-11-18T11:49:01;99273.91;;;6.34;100.00
60170;BME280;46042;49.444;6.862;2023-11-18T11:51:56;99275.78;;;6.31;100.00
60170;BME280;46042;49.444;6.862;2023-11-18T11:54:31;99268.47;;;6.39;100.00
60170;BME280;46042;49.444;6.862;2023-11-18T11:57:03;99268.31;;;6.44;100.00
60170;BME280;46042;49.444;6.862;2023-11-18T11:59:36;99278.72;;;6.45;100.00
60170;BME280;46042;49.444;6.862;2023-11-18T12:02:23;99276.03;;;6.47;100.00
60170;BME280;46042;49.444;6.862;2023-11-18T12:04:56;99270.75;;;6.48;100.00
60170;BME280;46042;49.444;6.862;2023-11-18T12:07:25;99258.41;;;6.52;100.00
60170;BME280;46042;49.444;6.862;2023-11-18T12:09:59;99260.91;;;6.55;100.00
60170;BME280;46042;49.444;6.862;2023-11-18T12:12:27;99266.13;;;6.55;100.00
60170;BME280;46042;49.444;6.862;2023-11-18T12:14:59;99251.09;;;6.60;100.00
60170;BME280;46042;49.444;6.862;2023-11-18T12:20:44;99240.66;;;6.59;100.00
60170;BME280;46042;49.444;6.862;2023-11-18T12:23:24;99227.69;;;6.55;100.00
60170;BME280;46042;49.444;6.862;2023-11-18T12:25:52;99230.63;;;6.48;100.00
60170;BME280;46042;49.444;6.862;2023-11-18T12:28:25;99224.69;;;6.44;100.00
60170;BME280;46042;49.444;6.862;2023-11-18T12:30:54;99230.69;;;6.46;100.00
60170;BME280;46042;49.444;6.862;2023-11-18T12:33:25;99218.31;;;6.50;100.00
60170;BME280;46042;49.444;6.862;2023-11-18T12:38:54;99198.78;;;6.59;100.00
60170;BME280;46042;49.444;6.862;2023-11-18T12:41:37;99202.78;;;6.67;100.00
60170;BME280;46042;49.444;6.862;2023-11-18T12:44:29;99195.50;;;6.53;100.00
60170;BME280;46042;49.444;6.862;2023-11-18T12:47:06;99184.66;;;6.63;100.00
60170;BME280;46042;49.444;6.862;2023-11-18T12:49:42;99170.16;;;6.76;100.00
60170;BME280;46042;49.444;6.862;2023-11-18T12:52:12;99169.34;;;6.74;100.00
60170;BME280;46042;49.444;6.862;2023-11-18T12:54:45;99172.97;;;6.72;100.00
60170;BME280;46042;49.444;6.862;2023-11-18T12:57:20;99157.56;;;6.64;100.00
60170;BME280;46042;49.444;6.862;2023-11-18T12:59:49;99153.53;;;6.77;100.00
60170;BME280;46042;49.444;6.862;2023-11-18T13:02:16;99135.44;;;6.71;100.00
60170;BME280;46042;49.444;6.862;2023-11-18T13:04:47;99132.19;;;6.66;100.00
60170;BME280;46042;49.444;6.862;2023-11-18T13:07:17;99123.47;;;6.65;100.00
60170;BME280;46042;49.444;6.862;2023-11-18T13:09:44;99105.34;;;6.61;100.00
60170;BME280;46042;49.444;6.862;2023-11-18T13:12:13;99090.94;;;6.50;100.00
60170;BME280;46042;49.444;6.862;2023-11-18T13:14:46;99073.94;;;6.61;100.00
60170;BME280;46042;49.444;6.862;2023-11-18T13:17:17;99071.78;;;6.71;100.00
60170;BME280;46042;49.444;6.862;2023-11-18T13:19:44;99076.00;;;6.73;100.00
60170;BME280;46042;49.444;6.862;2023-11-18T13:22:13;99067.91;;;6.79;100.00
60170;BME280;46042;49.444;6.862;2023-11-18T13:24:42;99084.44;;;6.80;100.00
60170;BME280;46042;49.444;6.862;2023-11-18T13:27:14;99089.81;;;6.77;100.00
60170;BME280;46042;49.444;6.862;2023-11-18T13:29:49;99091.34;;;6.82;100.00
60170;BME280;46042;49.444;6.862;2023-11-18T13:32:18;99088.72;;;6.82;100.00
60170;BME280;46042;49.444;6.862;2023-11-18T13:34:50;99092.16;;;6.83;100.00
60170;BME280;46042;49.444;6.862;2023-11-18T13:37:18;99085.19;;;6.83;100.00